CheckWX is a tool to help pilots better visualize weather data.  It is not intended as a substitute for an official pre-flight weather briefing.

04:43:58 UTC

KITH TAF
Ithaca Tompkins Regional Airport
Ithaca, New York, USA
KITH 290113Z 2901/2924 26011KT P6SM OVC035 TEMPO 2901/2903 4SM -SHSN OVC020 FM290800 29008KT 2SM -SHSN BR OVC018 FM291400 30011KT 1 1/2SM -SHSN BR OVC018 FM291900 30011G17KT 4SM -SHSN BR OVC025

Feb-29@
01:00 UTC

Feb-29 @ 01:00 UTC

Feb-29@
08:00 UTC

Feb-29 @ 08:00 UTC

KITH 290113Z 2901/2924 26011KT P6SM OVC035
Wind
  • 260° at 11 KTS
Cloud Levels
  • Overcast at 3,500' AGL

Feb-29@
01:00 UTC

Feb-29 @ 01:00 UTC

Feb-29@
03:00 UTC

Feb-29 @ 03:00 UTC

TEMPO 2901/2903 4SM -SHSN OVC020

Expired

Conditions
Light Snow
Cloud Levels
  • Overcast at 2,000' AGL

Feb-29@
08:00 UTC

Feb-29 @ 08:00 UTC

Feb-29@
14:00 UTC

Feb-29 @ 14:00 UTC

FM290800 29008KT 2SM -SHSN BR OVC018

From

From Standard forecast or significant change

Wind
  • 290° at 8 KTS
Conditions
Light Snow, Mist
Cloud Levels
  • Overcast at 1,800' AGL

Feb-29@
14:00 UTC

Feb-29 @ 14:00 UTC

Feb-29@
19:00 UTC

Feb-29 @ 19:00 UTC

FM291400 30011KT 1 1/2SM -SHSN BR OVC018

From

From Standard forecast or significant change

Wind
  • 300° at 11 KTS
Conditions
Light Snow, Mist
Cloud Levels
  • Overcast at 1,800' AGL

Feb-29@
19:00 UTC

Feb-29 @ 19:00 UTC

Mar-1@
00:00 UTC

Mar-1 @ 00:00 UTC

FM291900 30011G17KT 4SM -SHSN BR OVC025

From

From Standard forecast or significant change

Wind
  • 300° at 11 KTS
  • {Gusting to 17 KTS
Conditions
Light Snow, Mist
Cloud Levels
  • Overcast at 2,500' AGL